sensor_id;sensor_type;location;lat;lon;timestamp;P1;durP1;ratioP1;P2;durP2;ratioP2
22219;SDS011;11279;48.364;10.904;2023-06-14T00:00:32;8.73;;;4.37;;
22219;SDS011;11279;48.364;10.904;2023-06-14T00:01:34;8.98;;;4.20;;
22219;SDS011;11279;48.364;10.904;2023-06-14T00:02:35;8.20;;;5.00;;
22219;SDS011;11279;48.364;10.904;2023-06-14T00:03:35;6.97;;;4.47;;
22219;SDS011;11279;48.364;10.904;2023-06-14T00:04:36;6.17;;;4.10;;
22219;SDS011;11279;48.364;10.904;2023-06-14T00:05:38;8.13;;;4.63;;
22219;SDS011;11279;48.364;10.904;2023-06-14T00:06:43;7.90;;;4.30;;
22219;SDS011;11279;48.364;10.904;2023-06-14T00:07:45;9.55;;;4.60;;
22219;SDS011;11279;48.364;10.904;2023-06-14T00:08:48;9.52;;;5.15;;
22219;SDS011;11279;48.364;10.904;2023-06-14T00:09:48;10.90;;;4.70;;
22219;SDS011;11279;48.364;10.904;2023-06-14T00:10:49;12.33;;;4.80;;
22219;SDS011;11279;48.364;10.904;2023-06-14T00:11:49;10.83;;;4.50;;
22219;SDS011;11279;48.364;10.904;2023-06-14T00:12:50;8.70;;;4.57;;
22219;SDS011;11279;48.364;10.904;2023-06-14T00:13:50;9.83;;;5.20;;
22219;SDS011;11279;48.364;10.904;2023-06-14T00:14:51;11.47;;;4.77;;
22219;SDS011;11279;48.364;10.904;2023-06-14T00:15:51;9.47;;;5.10;;
22219;SDS011;11279;48.364;10.904;2023-06-14T00:16:55;8.27;;;4.60;;
22219;SDS011;11279;48.364;10.904;2023-06-14T00:17:58;9.63;;;4.43;;
22219;SDS011;11279;48.364;10.904;2023-06-14T00:19:01;8.40;;;4.53;;
22219;SDS011;11279;48.364;10.904;2023-06-14T00:20:05;7.97;;;4.57;;
22219;SDS011;11279;48.364;10.904;2023-06-14T00:21:06;11.38;;;4.90;;
22219;SDS011;11279;48.364;10.904;2023-06-14T00:22:07;9.07;;;4.90;;
22219;SDS011;11279;48.364;10.904;2023-06-14T00:23:07;8.50;;;4.53;;
22219;SDS011;11279;48.364;10.904;2023-06-14T00:24:08;10.23;;;5.10;;
22219;SDS011;11279;48.364;10.904;2023-06-14T00:25:08;8.63;;;4.37;;
22219;SDS011;11279;48.364;10.904;2023-06-14T00:26:08;8.93;;;4.90;;
22219;SDS011;11279;48.364;10.904;2023-06-14T00:27:09;7.43;;;4.37;;
22219;SDS011;11279;48.364;10.904;2023-06-14T00:28:10;10.13;;;4.87;;
22219;SDS011;11279;48.364;10.904;2023-06-14T00:29:10;9.57;;;4.80;;
22219;SDS011;11279;48.364;10.904;2023-06-14T00:30:11;7.13;;;4.70;;
22219;SDS011;11279;48.364;10.904;2023-06-14T00:31:12;9.40;;;4.33;;
22219;SDS011;11279;48.364;10.904;2023-06-14T00:32:12;9.20;;;4.53;;
22219;SDS011;11279;48.364;10.904;2023-06-14T00:33:12;9.70;;;4.40;;
22219;SDS011;11279;48.364;10.904;2023-06-14T00:34:13;8.17;;;4.53;;
22219;SDS011;11279;48.364;10.904;2023-06-14T00:35:13;7.13;;;4.17;;
22219;SDS011;11279;48.364;10.904;2023-06-14T00:36:14;8.90;;;4.90;;
22219;SDS011;11279;48.364;10.904;2023-06-14T00:37:14;8.37;;;4.03;;
22219;SDS011;11279;48.364;10.904;2023-06-14T00:38:15;10.37;;;4.53;;
22219;SDS011;11279;48.364;10.904;2023-06-14T00:39:15;7.67;;;4.27;;
22219;SDS011;11279;48.364;10.904;2023-06-14T00:40:16;9.00;;;4.07;;
22219;SDS011;11279;48.364;10.904;2023-06-14T00:41:16;10.07;;;4.33;;
22219;SDS011;11279;48.364;10.904;2023-06-14T00:42:23;7.97;;;4.23;;
22219;SDS011;11279;48.364;10.904;2023-06-14T00:43:26;10.32;;;4.15;;
22219;SDS011;11279;48.364;10.904;2023-06-14T00:44:27;10.77;;;4.83;;
22219;SDS011;11279;48.364;10.904;2023-06-14T00:45:27;6.33;;;4.07;;
22219;SDS011;11279;48.364;10.904;2023-06-14T00:46:28;7.87;;;4.60;;
22219;SDS011;11279;48.364;10.904;2023-06-14T00:47:28;8.87;;;4.67;;
22219;SDS011;11279;48.364;10.904;2023-06-14T00:48:28;7.90;;;3.87;;
22219;SDS011;11279;48.364;10.904;2023-06-14T00:49:30;8.90;;;4.35;;
22219;SDS011;11279;48.364;10.904;2023-06-14T00:50:31;7.33;;;4.30;;
22219;SDS011;11279;48.364;10.904;2023-06-14T00:51:33;8.27;;;4.40;;
22219;SDS011;11279;48.364;10.904;2023-06-14T00:52:33;9.70;;;4.50;;
22219;SDS011;11279;48.364;10.904;2023-06-14T00:53:34;8.35;;;4.35;;
22219;SDS011;11279;48.364;10.904;2023-06-14T00:54:35;7.57;;;4.60;;
22219;SDS011;11279;48.364;10.904;2023-06-14T00:55:36;9.63;;;4.87;;
22219;SDS011;11279;48.364;10.904;2023-06-14T00:56:36;9.77;;;4.23;;
22219;SDS011;11279;48.364;10.904;2023-06-14T00:57:37;9.47;;;4.50;;
22219;SDS011;11279;48.364;10.904;2023-06-14T00:58:38;6.95;;;4.30;;
22219;SDS011;11279;48.364;10.904;2023-06-14T00:59:46;9.70;;;4.53;;
22219;SDS011;11279;48.364;10.904;2023-06-14T01:00:47;8.00;;;4.22;;
22219;SDS011;11279;48.364;10.904;2023-06-14T01:01:48;10.87;;;3.93;;
22219;SDS011;11279;48.364;10.904;2023-06-14T01:02:49;7.57;;;4.40;;
22219;SDS011;11279;48.364;10.904;2023-06-14T01:03:52;8.02;;;4.45;;
22219;SDS011;11279;48.364;10.904;2023-06-14T01:04:52;8.73;;;4.10;;
22219;SDS011;11279;48.364;10.904;2023-06-14T01:05:56;6.20;;;4.23;;
22219;SDS011;11279;48.364;10.904;2023-06-14T01:07:09;7.60;;;4.25;;
22219;SDS011;11279;48.364;10.904;2023-06-14T01:08:24;9.48;;;4.38;;
22219;SDS011;11279;48.364;10.904;2023-06-14T01:09:45;7.05;;;4.20;;
22219;SDS011;11279;48.364;10.904;2023-06-14T01:10:56;8.60;;;4.82;;
22219;SDS011;11279;48.364;10.904;2023-06-14T01:12:07;8.90;;;4.63;;
22219;SDS011;11279;48.364;10.904;2023-06-14T01:13:29;9.30;;;4.53;;
22219;SDS011;11279;48.364;10.904;2023-06-14T01:14:33;8.30;;;4.68;;
22219;SDS011;11279;48.364;10.904;2023-06-14T01:15:35;7.97;;;4.88;;
22219;SDS011;11279;48.364;10.904;2023-06-14T01:16:36;8.93;;;4.55;;
22219;SDS011;11279;48.364;10.904;2023-06-14T01:17:39;12.43;;;4.95;;
22219;SDS011;11279;48.364;10.904;2023-06-14T01:18:43;9.00;;;4.60;;
22219;SDS011;11279;48.364;10.904;2023-06-14T01:19:48;7.80;;;4.20;;
22219;SDS011;11279;48.364;10.904;2023-06-14T01:20:48;7.60;;;4.63;;
22219;SDS011;11279;48.364;10.904;2023-06-14T01:21:49;8.18;;;4.53;;
22219;SDS011;11279;48.364;10.904;2023-06-14T01:22:51;9.13;;;4.78;;
22219;SDS011;11279;48.364;10.904;2023-06-14T01:23:52;8.35;;;4.75;;
22219;SDS011;11279;48.364;10.904;2023-06-14T01:24:53;8.50;;;4.20;;
22219;SDS011;11279;48.364;10.904;2023-06-14T01:25:55;9.55;;;4.57;;
22219;SDS011;11279;48.364;10.904;2023-06-14T01:26:55;8.40;;;4.50;;
22219;SDS011;11279;48.364;10.904;2023-06-14T01:28:00;7.32;;;4.60;;
22219;SDS011;11279;48.364;10.904;2023-06-14T01:29:04;9.18;;;4.45;;
22219;SDS011;11279;48.364;10.904;2023-06-14T01:30:05;9.65;;;4.50;;
22219;SDS011;11279;48.364;10.904;2023-06-14T01:31:06;8.30;;;4.32;;
22219;SDS011;11279;48.364;10.904;2023-06-14T01:32:07;9.57;;;4.40;;
22219;SDS011;11279;48.364;10.904;2023-06-14T01:33:08;8.47;;;4.57;;
22219;SDS011;11279;48.364;10.904;2023-06-14T01:34:08;8.90;;;4.87;;
22219;SDS011;11279;48.364;10.904;2023-06-14T01:35:09;8.97;;;4.83;;
22219;SDS011;11279;48.364;10.904;2023-06-14T01:36:10;9.73;;;4.80;;
22219;SDS011;11279;48.364;10.904;2023-06-14T01:37:11;8.20;;;3.97;;
22219;SDS011;11279;48.364;10.904;2023-06-14T01:38:13;9.45;;;4.68;;
22219;SDS011;11279;48.364;10.904;2023-06-14T01:39:15;10.02;;;4.72;;
22219;SDS011;11279;48.364;10.904;2023-06-14T01:40:15;12.20;;;4.50;;
22219;SDS011;11279;48.364;10.904;2023-06-14T01:41:17;10.32;;;4.53;;
22219;SDS011;11279;48.364;10.904;2023-06-14T01:42:18;10.93;;;4.50;;
22219;SDS011;11279;48.364;10.904;2023-06-14T01:43:20;11.60;;;4.68;;
22219;SDS011;11279;48.364;10.904;2023-06-14T01:44:21;7.23;;;4.50;;
22219;SDS011;11279;48.364;10.904;2023-06-14T01:45:22;7.13;;;4.30;;
22219;SDS011;11279;48.364;10.904;2023-06-14T01:46:23;8.53;;;4.80;;
22219;SDS011;11279;48.364;10.904;2023-06-14T01:47:23;8.80;;;4.50;;
22219;SDS011;11279;48.364;10.904;2023-06-14T01:48:24;8.77;;;4.63;;
22219;SDS011;11279;48.364;10.904;2023-06-14T01:49:25;8.20;;;4.30;;
22219;SDS011;11279;48.364;10.904;2023-06-14T01:50:31;7.78;;;4.70;;
22219;SDS011;11279;48.364;10.904;2023-06-14T01:51:32;8.35;;;4.60;;
22219;SDS011;11279;48.364;10.904;2023-06-14T01:52:32;6.50;;;4.20;;
22219;SDS011;11279;48.364;10.904;2023-06-14T01:53:32;9.37;;;4.33;;
22219;SDS011;11279;48.364;10.904;2023-06-14T01:54:33;7.17;;;4.60;;
22219;SDS011;11279;48.364;10.904;2023-06-14T01:55:33;6.57;;;4.00;;
22219;SDS011;11279;48.364;10.904;2023-06-14T01:56:37;9.85;;;4.68;;
22219;SDS011;11279;48.364;10.904;2023-06-14T01:57:37;7.60;;;4.23;;
22219;SDS011;11279;48.364;10.904;2023-06-14T01:58:38;10.33;;;4.63;;
22219;SDS011;11279;48.364;10.904;2023-06-14T01:59:39;8.30;;;4.95;;
22219;SDS011;11279;48.364;10.904;2023-06-14T02:00:39;7.87;;;4.60;;
22219;SDS011;11279;48.364;10.904;2023-06-14T02:01:40;7.87;;;4.70;;
22219;SDS011;11279;48.364;10.904;2023-06-14T02:02:40;6.53;;;4.43;;
22219;SDS011;11279;48.364;10.904;2023-06-14T02:03:41;8.93;;;4.60;;
22219;SDS011;11279;48.364;10.904;2023-06-14T02:04:42;7.60;;;4.72;;
22219;SDS011;11279;48.364;10.904;2023-06-14T02:05:42;7.17;;;4.60;;
22219;SDS011;11279;48.364;10.904;2023-06-14T02:06:43;9.63;;;4.97;;
22219;SDS011;11279;48.364;10.904;2023-06-14T02:07:43;11.00;;;5.03;;
22219;SDS011;11279;48.364;10.904;2023-06-14T02:08:44;8.27;;;4.80;;
22219;SDS011;11279;48.364;10.904;2023-06-14T02:09:45;8.30;;;4.37;;
22219;SDS011;11279;48.364;10.904;2023-06-14T02:10:45;8.93;;;5.30;;
22219;SDS011;11279;48.364;10.904;2023-06-14T02:11:45;7.97;;;4.70;;
22219;SDS011;11279;48.364;10.904;2023-06-14T02:12:46;13.40;;;4.67;;
22219;SDS011;11279;48.364;10.904;2023-06-14T02:13:46;6.27;;;4.43;;
22219;SDS011;11279;48.364;10.904;2023-06-14T02:14:47;11.40;;;4.30;;
22219;SDS011;11279;48.364;10.904;2023-06-14T02:15:48;8.50;;;4.50;;
22219;SDS011;11279;48.364;10.904;2023-06-14T02:16:51;13.05;;;5.13;;
22219;SDS011;11279;48.364;10.904;2023-06-14T02:17:52;12.70;;;5.07;;
22219;SDS011;11279;48.364;10.904;2023-06-14T02:18:54;10.70;;;4.78;;
22219;SDS011;11279;48.364;10.904;2023-06-14T02:19:54;9.20;;;4.83;;
22219;SDS011;11279;48.364;10.904;2023-06-14T02:20:57;10.32;;;4.50;;
22219;SDS011;11279;48.364;10.904;2023-06-14T02:21:57;8.60;;;4.63;;
22219;SDS011;11279;48.364;10.904;2023-06-14T02:22:58;7.57;;;4.80;;
22219;SDS011;11279;48.364;10.904;2023-06-14T02:23:58;8.33;;;4.50;;
22219;SDS011;11279;48.364;10.904;2023-06-14T02:24:58;8.73;;;4.97;;
22219;SDS011;11279;48.364;10.904;2023-06-14T02:25:59;8.10;;;4.77;;
22219;SDS011;11279;48.364;10.904;2023-06-14T02:26:59;8.53;;;5.43;;
22219;SDS011;11279;48.364;10.904;2023-06-14T02:28:00;7.70;;;4.37;;
22219;SDS011;11279;48.364;10.904;2023-06-14T02:29:00;11.53;;;5.30;;
22219;SDS011;11279;48.364;10.904;2023-06-14T02:30:01;8.00;;;4.50;;
22219;SDS011;11279;48.364;10.904;2023-06-14T02:31:01;8.53;;;4.67;;
22219;SDS011;11279;48.364;10.904;2023-06-14T02:32:02;9.97;;;4.43;;
22219;SDS011;11279;48.364;10.904;2023-06-14T02:33:03;9.98;;;4.70;;
22219;SDS011;11279;48.364;10.904;2023-06-14T02:34:04;8.90;;;5.20;;
22219;SDS011;11279;48.364;10.904;2023-06-14T02:35:05;11.57;;;4.77;;
22219;SDS011;11279;48.364;10.904;2023-06-14T02:36:06;8.52;;;4.90;;
22219;SDS011;11279;48.364;10.904;2023-06-14T02:37:06;7.83;;;4.87;;
22219;SDS011;11279;48.364;10.904;2023-06-14T02:38:07;11.60;;;5.23;;
22219;SDS011;11279;48.364;10.904;2023-06-14T02:39:08;8.23;;;5.10;;
22219;SDS011;11279;48.364;10.904;2023-06-14T02:40:11;8.65;;;4.82;;
22219;SDS011;11279;48.364;10.904;2023-06-14T02:41:12;9.80;;;4.77;;
22219;SDS011;11279;48.364;10.904;2023-06-14T02:42:12;8.63;;;5.07;;
22219;SDS011;11279;48.364;10.904;2023-06-14T02:43:13;8.13;;;4.90;;
22219;SDS011;11279;48.364;10.904;2023-06-14T02:44:13;9.73;;;5.10;;
22219;SDS011;11279;48.364;10.904;2023-06-14T02:45:14;8.60;;;4.20;;
22219;SDS011;11279;48.364;10.904;2023-06-14T02:46:15;9.15;;;5.30;;
22219;SDS011;11279;48.364;10.904;2023-06-14T02:47:15;6.60;;;4.40;;
22219;SDS011;11279;48.364;10.904;2023-06-14T02:48:16;9.03;;;4.67;;
22219;SDS011;11279;48.364;10.904;2023-06-14T02:49:16;7.87;;;4.70;;
22219;SDS011;11279;48.364;10.904;2023-06-14T02:50:17;9.07;;;5.20;;
22219;SDS011;11279;48.364;10.904;2023-06-14T02:51:17;11.03;;;5.07;;
22219;SDS011;11279;48.364;10.904;2023-06-14T02:52:18;8.70;;;5.07;;
22219;SDS011;11279;48.364;10.904;2023-06-14T02:53:18;7.47;;;4.30;;
22219;SDS011;11279;48.364;10.904;2023-06-14T02:54:19;9.63;;;4.90;;
22219;SDS011;11279;48.364;10.904;2023-06-14T02:55:19;10.40;;;5.50;;
22219;SDS011;11279;48.364;10.904;2023-06-14T02:56:20;12.07;;;5.73;;
22219;SDS011;11279;48.364;10.904;2023-06-14T02:57:22;10.50;;;6.10;;
22219;SDS011;11279;48.364;10.904;2023-06-14T02:58:23;9.67;;;5.30;;
22219;SDS011;11279;48.364;10.904;2023-06-14T02:59:25;7.90;;;5.20;;
22219;SDS011;11279;48.364;10.904;2023-06-14T03:00:26;7.63;;;4.63;;
22219;SDS011;11279;48.364;10.904;2023-06-14T03:01:26;8.80;;;5.30;;
22219;SDS011;11279;48.364;10.904;2023-06-14T03:02:33;10.15;;;5.53;;
22219;SDS011;11279;48.364;10.904;2023-06-14T03:03:34;10.00;;;5.13;;
22219;SDS011;11279;48.364;10.904;2023-06-14T03:04:34;9.00;;;4.97;;
22219;SDS011;11279;48.364;10.904;2023-06-14T03:05:37;7.93;;;4.90;;
22219;SDS011;11279;48.364;10.904;2023-06-14T03:06:41;7.15;;;4.95;;
22219;SDS011;11279;48.364;10.904;2023-06-14T03:07:44;9.82;;;5.65;;
22219;SDS011;11279;48.364;10.904;2023-06-14T03:08:45;10.47;;;5.17;;
22219;SDS011;11279;48.364;10.904;2023-06-14T03:09:46;9.60;;;5.43;;
22219;SDS011;11279;48.364;10.904;2023-06-14T03:10:47;10.05;;;5.18;;
22219;SDS011;11279;48.364;10.904;2023-06-14T03:11:48;8.68;;;4.97;;
22219;SDS011;11279;48.364;10.904;2023-06-14T03:12:48;11.43;;;5.43;;
22219;SDS011;11279;48.364;10.904;2023-06-14T03:13:49;10.43;;;5.00;;
22219;SDS011;11279;48.364;10.904;2023-06-14T03:14:51;9.15;;;5.47;;
22219;SDS011;11279;48.364;10.904;2023-06-14T03:15:51;10.97;;;5.53;;
22219;SDS011;11279;48.364;10.904;2023-06-14T03:16:52;9.33;;;5.20;;
22219;SDS011;11279;48.364;10.904;2023-06-14T03:17:56;8.43;;;5.13;;
22219;SDS011;11279;48.364;10.904;2023-06-14T03:18:59;8.15;;;5.20;;
22219;SDS011;11279;48.364;10.904;2023-06-14T03:20:00;11.00;;;5.30;;
22219;SDS011;11279;48.364;10.904;2023-06-14T03:21:01;11.00;;;5.70;;
22219;SDS011;11279;48.364;10.904;2023-06-14T03:22:01;9.38;;;4.82;;
22219;SDS011;11279;48.364;10.904;2023-06-14T03:23:02;8.90;;;5.30;;
22219;SDS011;11279;48.364;10.904;2023-06-14T03:24:03;8.70;;;5.13;;
22219;SDS011;11279;48.364;10.904;2023-06-14T03:25:04;11.27;;;5.20;;
22219;SDS011;11279;48.364;10.904;2023-06-14T03:26:05;10.40;;;5.20;;
22219;SDS011;11279;48.364;10.904;2023-06-14T03:27:05;8.50;;;5.30;;
22219;SDS011;11279;48.364;10.904;2023-06-14T03:28:06;9.10;;;5.10;;
22219;SDS011;11279;48.364;10.904;2023-06-14T03:29:06;8.23;;;5.50;;
22219;SDS011;11279;48.364;10.904;2023-06-14T03:30:07;10.40;;;5.13;;
22219;SDS011;11279;48.364;10.904;2023-06-14T03:31:08;9.63;;;5.53;;
22219;SDS011;11279;48.364;10.904;2023-06-14T03:32:08;13.77;;;5.43;;
22219;SDS011;11279;48.364;10.904;2023-06-14T03:33:09;11.67;;;6.10;;
22219;SDS011;11279;48.364;10.904;2023-06-14T03:34:09;9.80;;;5.83;;
22219;SDS011;11279;48.364;10.904;2023-06-14T03:35:10;10.83;;;5.50;;
22219;SDS011;11279;48.364;10.904;2023-06-14T03:36:16;12.23;;;6.28;;
22219;SDS011;11279;48.364;10.904;2023-06-14T03:37:18;9.02;;;5.57;;
22219;SDS011;11279;48.364;10.904;2023-06-14T03:38:19;12.37;;;5.90;;
22219;SDS011;11279;48.364;10.904;2023-06-14T03:39:19;12.07;;;6.17;;
22219;SDS011;11279;48.364;10.904;2023-06-14T03:40:20;10.10;;;5.80;;
22219;SDS011;11279;48.364;10.904;2023-06-14T03:41:21;11.07;;;5.72;;
22219;SDS011;11279;48.364;10.904;2023-06-14T03:42:22;10.07;;;5.30;;
22219;SDS011;11279;48.364;10.904;2023-06-14T03:43:22;11.03;;;5.27;;
22219;SDS011;11279;48.364;10.904;2023-06-14T03:44:22;11.90;;;5.73;;
22219;SDS011;11279;48.364;10.904;2023-06-14T03:45:23;9.17;;;5.63;;
22219;SDS011;11279;48.364;10.904;2023-06-14T03:46:23;9.80;;;5.30;;
22219;SDS011;11279;48.364;10.904;2023-06-14T03:47:24;10.43;;;5.70;;
22219;SDS011;11279;48.364;10.904;2023-06-14T03:48:24;9.37;;;5.67;;
22219;SDS011;11279;48.364;10.904;2023-06-14T03:49:25;13.77;;;5.67;;
22219;SDS011;11279;48.364;10.904;2023-06-14T03:50:26;9.80;;;5.73;;
22219;SDS011;11279;48.364;10.904;2023-06-14T03:51:27;10.43;;;5.73;;
22219;SDS011;11279;48.364;10.904;2023-06-14T03:52:28;9.15;;;4.93;;
22219;SDS011;11279;48.364;10.904;2023-06-14T03:53:29;9.37;;;5.50;;
22219;SDS011;11279;48.364;10.904;2023-06-14T03:54:29;8.57;;;5.77;;
22219;SDS011;11279;48.364;10.904;2023-06-14T03:55:32;9.48;;;5.50;;
22219;SDS011;11279;48.364;10.904;2023-06-14T03:56:33;11.70;;;5.87;;
22219;SDS011;11279;48.364;10.904;2023-06-14T03:57:33;10.67;;;5.60;;
22219;SDS011;11279;48.364;10.904;2023-06-14T03:58:34;9.87;;;5.80;;
22219;SDS011;11279;48.364;10.904;2023-06-14T03:59:34;13.13;;;6.13;;
22219;SDS011;11279;48.364;10.904;2023-06-14T04:00:35;11.30;;;5.87;;
22219;SDS011;11279;48.364;10.904;2023-06-14T04:01:35;9.73;;;5.70;;
22219;SDS011;11279;48.364;10.904;2023-06-14T04:02:36;13.23;;;6.37;;
22219;SDS011;11279;48.364;10.904;2023-06-14T04:03:37;11.10;;;5.80;;
22219;SDS011;11279;48.364;10.904;2023-06-14T04:04:37;11.23;;;5.90;;
22219;SDS011;11279;48.364;10.904;2023-06-14T04:05:38;10.27;;;5.60;;
22219;SDS011;11279;48.364;10.904;2023-06-14T04:06:42;9.57;;;5.60;;
22219;SDS011;11279;48.364;10.904;2023-06-14T04:07:42;9.20;;;5.83;;
22219;SDS011;11279;48.364;10.904;2023-06-14T04:08:45;13.30;;;6.05;;
22219;SDS011;11279;48.364;10.904;2023-06-14T04:09:45;11.37;;;5.90;;
22219;SDS011;11279;48.364;10.904;2023-06-14T04:10:46;12.70;;;5.97;;
22219;SDS011;11279;48.364;10.904;2023-06-14T04:11:46;11.90;;;5.77;;
22219;SDS011;11279;48.364;10.904;2023-06-14T04:12:47;11.17;;;6.30;;
22219;SDS011;11279;48.364;10.904;2023-06-14T04:13:47;12.23;;;5.47;;
22219;SDS011;11279;48.364;10.904;2023-06-14T04:14:48;10.23;;;6.17;;
22219;SDS011;11279;48.364;10.904;2023-06-14T04:15:48;10.47;;;6.37;;
22219;SDS011;11279;48.364;10.904;2023-06-14T04:16:49;9.93;;;5.47;;
22219;SDS011;11279;48.364;10.904;2023-06-14T04:17:49;10.50;;;5.77;;
22219;SDS011;11279;48.364;10.904;2023-06-14T04:18:50;9.80;;;5.88;;
22219;SDS011;11279;48.364;10.904;2023-06-14T04:19:52;9.50;;;5.90;;
22219;SDS011;11279;48.364;10.904;2023-06-14T04:20:52;13.33;;;5.50;;
22219;SDS011;11279;48.364;10.904;2023-06-14T04:21:53;12.90;;;5.90;;
22219;SDS011;11279;48.364;10.904;2023-06-14T04:22:56;11.10;;;6.57;;
22219;SDS011;11279;48.364;10.904;2023-06-14T04:23:57;10.75;;;5.30;;
22219;SDS011;11279;48.364;10.904;2023-06-14T04:24:57;12.27;;;6.23;;
22219;SDS011;11279;48.364;10.904;2023-06-14T04:25:59;12.38;;;6.20;;
22219;SDS011;11279;48.364;10.904;2023-06-14T04:27:02;10.50;;;5.90;;
22219;SDS011;11279;48.364;10.904;2023-06-14T04:28:03;12.50;;;5.87;;
22219;SDS011;11279;48.364;10.904;2023-06-14T04:29:03;15.33;;;6.47;;
22219;SDS011;11279;48.364;10.904;2023-06-14T04:30:04;9.83;;;6.20;;
22219;SDS011;11279;48.364;10.904;2023-06-14T04:31:08;11.50;;;7.20;;
22219;SDS011;11279;48.364;10.904;2023-06-14T04:32:08;12.98;;;6.15;;
22219;SDS011;11279;48.364;10.904;2023-06-14T04:33:10;13.73;;;5.88;;
22219;SDS011;11279;48.364;10.904;2023-06-14T04:34:13;12.33;;;5.63;;
22219;SDS011;11279;48.364;10.904;2023-06-14T04:35:16;12.80;;;6.55;;
22219;SDS011;11279;48.364;10.904;2023-06-14T04:36:17;11.43;;;6.10;;
22219;SDS011;11279;48.364;10.904;2023-06-14T04:37:17;13.17;;;6.40;;
22219;SDS011;11279;48.364;10.904;2023-06-14T04:38:19;10.32;;;6.10;;
22219;SDS011;11279;48.364;10.904;2023-06-14T04:39:24;11.25;;;6.43;;
22219;SDS011;11279;48.364;10.904;2023-06-14T04:40:26;11.70;;;6.00;;
22219;SDS011;11279;48.364;10.904;2023-06-14T04:41:26;15.97;;;6.23;;
22219;SDS011;11279;48.364;10.904;2023-06-14T04:42:30;12.25;;;5.93;;
22219;SDS011;11279;48.364;10.904;2023-06-14T04:43:31;10.57;;;5.83;;
22219;SDS011;11279;48.364;10.904;2023-06-14T04:44:38;11.23;;;5.60;;
22219;SDS011;11279;48.364;10.904;2023-06-14T04:45:39;9.43;;;5.80;;
22219;SDS011;11279;48.364;10.904;2023-06-14T04:46:41;12.10;;;6.43;;
22219;SDS011;11279;48.364;10.904;2023-06-14T04:47:47;10.27;;;6.22;;
22219;SDS011;11279;48.364;10.904;2023-06-14T04:48:47;13.50;;;6.20;;
22219;SDS011;11279;48.364;10.904;2023-06-14T04:49:50;12.02;;;5.95;;
22219;SDS011;11279;48.364;10.904;2023-06-14T04:50:53;10.60;;;6.22;;
22219;SDS011;11279;48.364;10.904;2023-06-14T04:51:56;11.53;;;6.03;;
22219;SDS011;11279;48.364;10.904;2023-06-14T04:53:01;10.25;;;6.20;;
22219;SDS011;11279;48.364;10.904;2023-06-14T04:54:02;11.05;;;6.05;;
22219;SDS011;11279;48.364;10.904;2023-06-14T04:55:05;10.88;;;6.40;;
22219;SDS011;11279;48.364;10.904;2023-06-14T04:56:05;13.53;;;6.57;;
22219;SDS011;11279;48.364;10.904;2023-06-14T04:57:06;11.47;;;6.00;;
22219;SDS011;11279;48.364;10.904;2023-06-14T04:58:06;10.90;;;6.10;;
22219;SDS011;11279;48.364;10.904;2023-06-14T04:59:06;15.87;;;6.90;;
22219;SDS011;11279;48.364;10.904;2023-06-14T05:00:07;9.40;;;5.80;;
22219;SDS011;11279;48.364;10.904;2023-06-14T05:01:09;10.10;;;5.82;;
22219;SDS011;11279;48.364;10.904;2023-06-14T05:02:10;13.70;;;6.10;;
22219;SDS011;11279;48.364;10.904;2023-06-14T05:03:11;11.55;;;6.32;;
22219;SDS011;11279;48.364;10.904;2023-06-14T05:04:13;9.75;;;5.72;;
22219;SDS011;11279;48.364;10.904;2023-06-14T05:05:15;8.85;;;5.35;;
22219;SDS011;11279;48.364;10.904;2023-06-14T05:06:15;9.37;;;5.73;;
22219;SDS011;11279;48.364;10.904;2023-06-14T05:07:17;9.32;;;5.40;;
22219;SDS011;11279;48.364;10.904;2023-06-14T05:08:17;12.70;;;5.70;;
22219;SDS011;11279;48.364;10.904;2023-06-14T05:09:18;9.13;;;5.60;;
22219;SDS011;11279;48.364;10.904;2023-06-14T05:10:18;11.83;;;5.83;;
22219;SDS011;11279;48.364;10.904;2023-06-14T05:11:19;9.63;;;5.73;;
22219;SDS011;11279;48.364;10.904;2023-06-14T05:12:20;11.63;;;6.17;;
22219;SDS011;11279;48.364;10.904;2023-06-14T05:13:20;8.90;;;5.27;;
22219;SDS011;11279;48.364;10.904;2023-06-14T05:14:23;11.65;;;5.97;;
22219;SDS011;11279;48.364;10.904;2023-06-14T05:15:23;11.03;;;5.80;;
22219;SDS011;11279;48.364;10.904;2023-06-14T05:16:25;9.70;;;5.55;;
22219;SDS011;11279;48.364;10.904;2023-06-14T05:17:27;13.63;;;6.38;;
22219;SDS011;11279;48.364;10.904;2023-06-14T05:18:30;10.80;;;6.43;;
22219;SDS011;11279;48.364;10.904;2023-06-14T05:19:31;10.27;;;5.40;;
22219;SDS011;11279;48.364;10.904;2023-06-14T05:20:31;13.90;;;5.57;;
22219;SDS011;11279;48.364;10.904;2023-06-14T05:21:31;11.50;;;6.03;;
22219;SDS011;11279;48.364;10.904;2023-06-14T05:22:33;8.32;;;5.57;;
22219;SDS011;11279;48.364;10.904;2023-06-14T05:23:34;10.80;;;5.67;;
22219;SDS011;11279;48.364;10.904;2023-06-14T05:24:34;9.37;;;5.97;;
22219;SDS011;11279;48.364;10.904;2023-06-14T05:25:34;10.37;;;5.83;;
22219;SDS011;11279;48.364;10.904;2023-06-14T05:26:35;11.17;;;6.13;;
22219;SDS011;11279;48.364;10.904;2023-06-14T05:27:36;7.60;;;5.13;;
22219;SDS011;11279;48.364;10.904;2023-06-14T05:28:37;10.73;;;5.50;;
22219;SDS011;11279;48.364;10.904;2023-06-14T05:29:37;11.40;;;5.60;;
22219;SDS011;11279;48.364;10.904;2023-06-14T05:30:38;10.83;;;5.37;;
22219;SDS011;11279;48.364;10.904;2023-06-14T05:31:39;12.37;;;6.00;;
22219;SDS011;11279;48.364;10.904;2023-06-14T05:32:40;8.93;;;5.13;;
22219;SDS011;11279;48.364;10.904;2023-06-14T05:33:40;8.73;;;5.43;;
22219;SDS011;11279;48.364;10.904;2023-06-14T05:34:41;11.37;;;4.90;;
22219;SDS011;11279;48.364;10.904;2023-06-14T05:35:43;8.37;;;5.20;;
22219;SDS011;11279;48.364;10.904;2023-06-14T05:36:43;9.90;;;5.47;;
22219;SDS011;11279;48.364;10.904;2023-06-14T05:37:43;6.90;;;4.57;;
22219;SDS011;11279;48.364;10.904;2023-06-14T05:38:44;9.77;;;4.87;;
22219;SDS011;11279;48.364;10.904;2023-06-14T05:39:45;6.63;;;4.40;;
22219;SDS011;11279;48.364;10.904;2023-06-14T05:40:45;9.33;;;5.00;;
22219;SDS011;11279;48.364;10.904;2023-06-14T05:41:46;7.70;;;4.60;;
22219;SDS011;11279;48.364;10.904;2023-06-14T05:42:46;10.07;;;4.80;;
22219;SDS011;11279;48.364;10.904;2023-06-14T05:43:47;7.73;;;4.80;;
22219;SDS011;11279;48.364;10.904;2023-06-14T05:44:47;10.63;;;5.13;;
22219;SDS011;11279;48.364;10.904;2023-06-14T05:45:48;13.20;;;5.27;;
22219;SDS011;11279;48.364;10.904;2023-06-14T05:46:48;8.30;;;4.67;;
22219;SDS011;11279;48.364;10.904;2023-06-14T05:47:48;7.27;;;4.53;;
22219;SDS011;11279;48.364;10.904;2023-06-14T05:48:53;13.70;;;5.30;;
22219;SDS011;11279;48.364;10.904;2023-06-14T05:49:54;9.53;;;5.00;;
22219;SDS011;11279;48.364;10.904;2023-06-14T05:50:55;9.50;;;5.10;;
22219;SDS011;11279;48.364;10.904;2023-06-14T05:51:55;9.10;;;4.90;;
22219;SDS011;11279;48.364;10.904;2023-06-14T05:52:56;9.23;;;4.80;;
22219;SDS011;11279;48.364;10.904;2023-06-14T05:53:56;7.90;;;4.90;;
22219;SDS011;11279;48.364;10.904;2023-06-14T05:54:57;7.97;;;5.17;;
22219;SDS011;11279;48.364;10.904;2023-06-14T05:55:57;11.40;;;5.23;;
22219;SDS011;11279;48.364;10.904;2023-06-14T05:56:58;8.57;;;5.10;;
22219;SDS011;11279;48.364;10.904;2023-06-14T05:58:01;7.13;;;4.60;;
22219;SDS011;11279;48.364;10.904;2023-06-14T05:59:02;10.40;;;4.83;;
22219;SDS011;11279;48.364;10.904;2023-06-14T06:00:02;10.17;;;5.13;;
22219;SDS011;11279;48.364;10.904;2023-06-14T06:01:14;14.48;;;4.75;;
22219;SDS011;11279;48.364;10.904;2023-06-14T06:02:15;8.57;;;4.37;;